»·PEaware :: TEXAN22 KRND-KRND

TEXAN22 :: KRND-KRND

FLIGHT INFORMATION

Flight Status: Arrived
Operator: Unknown
More flights by this operator :: More flights under this callsign
Pilot: Indie I. (23343)
Aircraft: BEECH AIRCRAFT T-6A TEXAN
(TEX2)
More flights by this aircraft type
Origin: KRND Randolph AFB
United States
Destination: KRND Randolph AFB
United States
More flights between these airports :: More routes between these airports
Route: SR-130
File this flight plan on PilotEdge
Remarks: FALLS6 SR-130
Altitude:
(Current/Filed)
3,500ft
Speed:
(Current/Filed)
210kts
Departed: 01-May-20 11:47 AM
Arrived: 01-May-20 01:02 PM
Distance/Time
Traveled:
0nm/1:15
Distance/Time
To Go:
Arrived

Flight Plot

Page will automatically refresh every two minutes.

Flight plan parsing failed; only flown route is shown


Map Options




Map Legend


Flown Route
Filed Route
Departure Airport
Arrival Airport
Navaid (VOR, NDB)
Fix

Horizontal Profiles

Position Reports

Time Latitude Longitude Heading Altitude Ground
Speed
01-May-20 11:40 29.534385 -98.290486 242 765ft 0kts
01-May-20 11:41 29.534385 -98.290488 242 765ft 0kts
01-May-20 11:42 29.534384 -98.290490 242 765ft 0kts
01-May-20 11:43 29.534383 -98.290492 242 765ft 0kts
01-May-20 11:44 29.534382 -98.290494 242 765ft 0kts
01-May-20 11:45 29.534752 -98.291290 300 765ft 8kts
01-May-20 11:46 29.533130 -98.292038 149 765ft 55kts
01-May-20 11:47 29.494286 -98.274928 175 1841ft 199kts
01-May-20 11:48 29.451916 -98.297350 248 3800ft 197kts
01-May-20 11:49 29.430270 -98.363330 252 3564ft 220kts
01-May-20 11:50 29.412955 -98.430581 253 3519ft 218kts
01-May-20 11:51 29.395877 -98.497552 257 3483ft 217kts
01-May-20 11:52 29.387072 -98.565860 261 3479ft 217kts
01-May-20 11:53 29.377881 -98.634286 250 3426ft 220kts
01-May-20 11:54 29.364958 -98.701758 258 3485ft 217kts
01-May-20 11:55 29.353605 -98.769773 254 3498ft 217kts
01-May-20 11:56 29.333411 -98.834784 251 3529ft 216kts
01-May-20 11:57 29.315940 -98.900852 252 3559ft 216kts
01-May-20 11:58 29.315999 -98.970139 267 2960ft 233kts
01-May-20 11:59 29.351797 -99.002256 2 1860ft 181kts
01-May-20 12:00 29.386138 -98.997677 6 1623ft 203kts
01-May-20 12:01 29.443710 -98.990215 7 1895ft 225kts
01-May-20 12:02 29.506392 -98.981431 9 2020ft 221kts
01-May-20 12:03 29.565736 -98.974987 7 1558ft 206kts
01-May-20 12:04 29.618537 -98.967314 13 1637ft 187kts
01-May-20 12:05 29.666444 -98.959508 319 2083ft 179kts
01-May-20 12:06 29.712161 -99.000084 321 2141ft 202kts
01-May-20 12:07 29.757163 -99.039797 323 2225ft 205kts
01-May-20 12:08 29.801980 -99.081746 321 2112ft 210kts
01-May-20 12:09 29.847128 -99.122291 323 2703ft 205kts
01-May-20 12:10 29.892221 -99.161914 323 2276ft 204kts
01-May-20 12:11 29.934486 -99.200749 317 2391ft 195kts
01-May-20 12:12 29.976403 -99.242846 323 2434ft 200kts
01-May-20 12:13 30.020653 -99.282285 322 2644ft 201kts
01-May-20 12:14 30.067179 -99.322426 333 2644ft 222kts
01-May-20 12:15 30.129380 -99.299986 20 2795ft 245kts
01-May-20 12:16 30.189360 -99.268862 23 2716ft 230kts
01-May-20 12:17 30.247477 -99.241388 22 2526ft 216kts
01-May-20 12:18 30.302660 -99.220433 24 2548ft 206kts
01-May-20 12:19 30.354899 -99.194879 21 2697ft 203kts
01-May-20 12:20 30.408399 -99.171563 19 2706ft 209kts
01-May-20 12:21 30.432137 -99.127298 108 2730ft 240kts
01-May-20 12:22 30.426516 -99.055969 91 2590ft 206kts
01-May-20 12:23 30.424490 -98.990621 93 2548ft 200kts
01-May-20 12:24 30.420249 -98.927054 94 2841ft 198kts
01-May-20 12:25 30.418061 -98.861720 92 2929ft 212kts
01-May-20 12:26 30.416996 -98.792115 93 2811ft 216kts
01-May-20 12:27 30.412954 -98.723882 102 2785ft 216kts
01-May-20 12:29 30.399621 -98.654649 104 2251ft 211kts
01-May-20 12:30 30.386044 -98.590644 105 2184ft 203kts
01-May-20 12:31 30.373549 -98.527398 100 2168ft 202kts
01-May-20 12:32 30.358289 -98.464430 124 2166ft 206kts
01-May-20 12:33 30.305955 -98.454925 176 3955ft 207kts
01-May-20 12:34 30.243598 -98.447943 168 3702ft 231kts
01-May-20 12:35 30.182661 -98.433760 171 3806ft 223kts
01-May-20 12:36 30.118884 -98.421099 162 3041ft 227kts
01-May-20 12:37 30.060873 -98.401796 166 3185ft 219kts
01-May-20 12:38 30.001925 -98.386545 167 3168ft 221kts
01-May-20 12:39 29.940986 -98.374863 184 2864ft 224kts
01-May-20 12:40 29.882840 -98.366466 173 3135ft 214kts
01-May-20 12:41 29.822353 -98.361330 179 3161ft 218kts
01-May-20 12:42 29.763273 -98.368763 215 3222ft 213kts
01-May-20 12:43 29.720929 -98.412236 205 3120ft 196kts
01-May-20 12:44 29.676248 -98.386717 147 3122ft 172kts
01-May-20 12:44 29.646288 -98.367012 149 3206ft 138kts
01-May-20 12:46 29.608862 -98.342234 149 2425ft 130kts
01-May-20 12:47 29.578445 -98.321874 150 1770ft 124kts
01-May-20 12:47 29.553542 -98.305508 149 1234ft 123kts
01-May-20 12:48 29.525271 -98.286836 150 849ft 142kts
01-May-20 12:50 29.502176 -98.315521 334 1744ft 202kts
01-May-20 12:50 29.546012 -98.340021 332 1829ft 212kts
01-May-20 12:51 29.551647 -98.303946 150 2937ft 179kts
01-May-20 12:52 29.525354 -98.304718 326 2567ft 125kts
01-May-20 12:53 29.529224 -98.289510 149 766ft 92kts
01-May-20 12:54 29.515505 -98.297173 330 1889ft 180kts
01-May-20 12:55 29.547141 -98.302879 112 1251ft 130kts
01-May-20 12:56 29.519277 -98.282703 153 1077ft 163kts
01-May-20 12:57 29.530089 -98.309438 344 2280ft 122kts
01-May-20 12:58 29.527089 -98.288119 151 797ft 104kts
01-May-20 12:59 29.522902 -98.302218 333 1757ft 134kts
01-May-20 13:00 29.544907 -98.300409 142 1054ft 112kts
01-May-20 13:01 29.526617 -98.287052 80 765ft 17kts

Navigation Log

Ident Type
Flight plan parsing failed, navigation log unavailable